Snow, Oklahoma
Current Conditions -  °F | °C
As of 7:15 AM on Thursday 18 Dec 2014 (Local Time) from KHHW Reporting Station
Haze Haze  
Wind Chill: 36°   Ceiling: 200
Heat Index: 40°   Visibility: 4mi
Dew Point: 39°   Wind: 6mph
Humidity: 93%   Direction: 120°ESE
Pressure: 30.17"   Gusts: NA
Location:  34.4°N, 95.42°W
Report Text: KHHW 181315Z AUTO 12005KT 4SM BR OVC002 05/04 A3017 RMK AO2 T00470037
Loading
Personal Weather Stations






























Interactive Weather Map New forecast layout! Learn more

10-Day Weather Forecast

Advertisements
Track Severe Weather on mobile